sensor_id;sensor_type;location;lat;lon;timestamp;P1;durP1;ratioP1;P2;durP2;ratioP2
69594;SDS011;56800;52.142;5.364;2023-02-15T00:01:55;55.50;;;27.95;;
69594;SDS011;56800;52.142;5.364;2023-02-15T00:04:22;47.67;;;26.13;;
69594;SDS011;56800;52.142;5.364;2023-02-15T00:06:50;51.53;;;25.77;;
69594;SDS011;56800;52.142;5.364;2023-02-15T00:09:17;56.85;;;28.00;;
69594;SDS011;56800;52.142;5.364;2023-02-15T00:11:44;52.17;;;26.08;;
69594;SDS011;56800;52.142;5.364;2023-02-15T00:14:17;52.65;;;26.95;;
69594;SDS011;56800;52.142;5.364;2023-02-15T00:16:46;56.07;;;25.30;;
69594;SDS011;56800;52.142;5.364;2023-02-15T00:19:14;48.40;;;26.38;;
69594;SDS011;56800;52.142;5.364;2023-02-15T00:21:42;53.30;;;27.38;;
69594;SDS011;56800;52.142;5.364;2023-02-15T00:24:10;51.85;;;26.52;;
69594;SDS011;56800;52.142;5.364;2023-02-15T00:26:39;57.63;;;27.58;;
69594;SDS011;56800;52.142;5.364;2023-02-15T00:29:07;59.47;;;29.57;;
69594;SDS011;56800;52.142;5.364;2023-02-15T00:31:34;61.08;;;28.92;;
69594;SDS011;56800;52.142;5.364;2023-02-15T00:34:02;53.83;;;27.77;;
69594;SDS011;56800;52.142;5.364;2023-02-15T00:36:30;55.47;;;28.25;;
69594;SDS011;56800;52.142;5.364;2023-02-15T00:38:57;49.03;;;26.35;;
69594;SDS011;56800;52.142;5.364;2023-02-15T00:41:24;53.10;;;26.57;;
69594;SDS011;56800;52.142;5.364;2023-02-15T00:43:51;51.83;;;26.17;;
69594;SDS011;56800;52.142;5.364;2023-02-15T00:46:18;47.88;;;25.83;;
69594;SDS011;56800;52.142;5.364;2023-02-15T00:48:44;49.97;;;25.77;;
69594;SDS011;56800;52.142;5.364;2023-02-15T00:51:11;49.10;;;25.90;;
69594;SDS011;56800;52.142;5.364;2023-02-15T00:53:38;46.57;;;25.10;;
69594;SDS011;56800;52.142;5.364;2023-02-15T00:56:04;51.35;;;27.38;;
69594;SDS011;56800;52.142;5.364;2023-02-15T00:58:31;53.28;;;26.77;;
69594;SDS011;56800;52.142;5.364;2023-02-15T01:01:02;57.60;;;26.13;;
69594;SDS011;56800;52.142;5.364;2023-02-15T01:03:34;47.13;;;25.58;;
69594;SDS011;56800;52.142;5.364;2023-02-15T01:06:01;52.73;;;26.40;;
69594;SDS011;56800;52.142;5.364;2023-02-15T01:08:28;59.25;;;27.98;;
69594;SDS011;56800;52.142;5.364;2023-02-15T01:10:56;49.65;;;26.27;;
69594;SDS011;56800;52.142;5.364;2023-02-15T01:13:22;49.70;;;26.90;;
69594;SDS011;56800;52.142;5.364;2023-02-15T01:15:53;50.53;;;25.63;;
69594;SDS011;56800;52.142;5.364;2023-02-15T01:18:21;54.23;;;25.57;;
69594;SDS011;56800;52.142;5.364;2023-02-15T01:20:48;52.65;;;27.65;;
69594;SDS011;56800;52.142;5.364;2023-02-15T01:23:15;59.35;;;29.25;;
69594;SDS011;56800;52.142;5.364;2023-02-15T01:25:42;52.65;;;26.98;;
69594;SDS011;56800;52.142;5.364;2023-02-15T01:28:09;56.10;;;28.13;;
69594;SDS011;56800;52.142;5.364;2023-02-15T01:30:35;59.30;;;28.77;;
69594;SDS011;56800;52.142;5.364;2023-02-15T01:33:02;54.67;;;28.65;;
69594;SDS011;56800;52.142;5.364;2023-02-15T01:35:29;62.28;;;28.33;;
69594;SDS011;56800;52.142;5.364;2023-02-15T01:37:56;56.88;;;27.80;;
69594;SDS011;56800;52.142;5.364;2023-02-15T01:40:23;54.33;;;26.90;;
69594;SDS011;56800;52.142;5.364;2023-02-15T01:42:54;55.30;;;28.13;;
69594;SDS011;56800;52.142;5.364;2023-02-15T01:48:31;56.45;;;27.55;;
69594;SDS011;56800;52.142;5.364;2023-02-15T01:50:52;46.35;;;24.70;;
69594;SDS011;56800;52.142;5.364;2023-02-15T01:55:57;55.77;;;26.20;;
69594;SDS011;56800;52.142;5.364;2023-02-15T01:58:27;57.05;;;28.15;;
69594;SDS011;56800;52.142;5.364;2023-02-15T02:00:56;54.45;;;27.00;;
69594;SDS011;56800;52.142;5.364;2023-02-15T02:06:02;50.50;;;25.15;;
69594;SDS011;56800;52.142;5.364;2023-02-15T02:08:29;53.07;;;25.13;;
69594;SDS011;56800;52.142;5.364;2023-02-15T02:10:56;54.10;;;25.92;;
69594;SDS011;56800;52.142;5.364;2023-02-15T02:13:23;57.10;;;26.67;;
69594;SDS011;56800;52.142;5.364;2023-02-15T02:15:56;46.67;;;25.00;;
69594;SDS011;56800;52.142;5.364;2023-02-15T02:18:31;44.00;;;24.20;;
69594;SDS011;56800;52.142;5.364;2023-02-15T02:29:39;44.30;;;23.10;;
69594;SDS011;56800;52.142;5.364;2023-02-15T02:32:44;48.35;;;23.30;;
69594;SDS011;56800;52.142;5.364;2023-02-15T02:35:32;50.67;;;24.30;;
69594;SDS011;56800;52.142;5.364;2023-02-15T02:40:48;49.97;;;24.70;;
69594;SDS011;56800;52.142;5.364;2023-02-15T02:46:00;48.97;;;24.35;;
69594;SDS011;56800;52.142;5.364;2023-02-15T02:48:33;49.57;;;23.63;;
69594;SDS011;56800;52.142;5.364;2023-02-15T02:51:00;47.25;;;23.85;;
69594;SDS011;56800;52.142;5.364;2023-02-15T02:53:27;48.08;;;24.05;;
69594;SDS011;56800;52.142;5.364;2023-02-15T02:55:56;50.88;;;23.75;;
69594;SDS011;56800;52.142;5.364;2023-02-15T02:58:35;51.90;;;24.75;;
69594;SDS011;56800;52.142;5.364;2023-02-15T03:06:56;44.88;;;23.85;;
69594;SDS011;56800;52.142;5.364;2023-02-15T03:09:27;44.45;;;23.08;;
69594;SDS011;56800;52.142;5.364;2023-02-15T03:12:01;51.53;;;22.65;;
69594;SDS011;56800;52.142;5.364;2023-02-15T03:14:29;42.23;;;21.77;;
69594;SDS011;56800;52.142;5.364;2023-02-15T03:16:56;51.60;;;22.42;;
69594;SDS011;56800;52.142;5.364;2023-02-15T03:19:28;40.63;;;22.00;;
69594;SDS011;56800;52.142;5.364;2023-02-15T03:22:00;41.28;;;21.38;;
69594;SDS011;56800;52.142;5.364;2023-02-15T03:24:40;57.40;;;22.63;;
69594;SDS011;56800;52.142;5.364;2023-02-15T03:27:11;53.77;;;23.10;;
69594;SDS011;56800;52.142;5.364;2023-02-15T03:29:50;41.85;;;22.05;;
69594;SDS011;56800;52.142;5.364;2023-02-15T03:32:20;45.25;;;21.98;;
69594;SDS011;56800;52.142;5.364;2023-02-15T03:34:47;43.50;;;22.42;;
69594;SDS011;56800;52.142;5.364;2023-02-15T03:39:52;54.60;;;24.00;;
69594;SDS011;56800;52.142;5.364;2023-02-15T03:45:57;45.97;;;22.08;;
69594;SDS011;56800;52.142;5.364;2023-02-15T03:48:38;47.78;;;23.27;;
69594;SDS011;56800;52.142;5.364;2023-02-15T03:51:10;46.33;;;23.63;;
69594;SDS011;56800;52.142;5.364;2023-02-15T03:54:10;45.03;;;22.53;;
69594;SDS011;56800;52.142;5.364;2023-02-15T03:57:00;51.88;;;22.73;;
69594;SDS011;56800;52.142;5.364;2023-02-15T03:59:57;49.38;;;22.60;;
69594;SDS011;56800;52.142;5.364;2023-02-15T04:03:06;54.22;;;21.77;;
69594;SDS011;56800;52.142;5.364;2023-02-15T04:05:38;40.92;;;21.60;;
69594;SDS011;56800;52.142;5.364;2023-02-15T04:08:05;41.07;;;20.80;;
69594;SDS011;56800;52.142;5.364;2023-02-15T04:10:32;81.47;;;22.92;;
69594;SDS011;56800;52.142;5.364;2023-02-15T04:13:17;42.25;;;22.35;;
69594;SDS011;56800;52.142;5.364;2023-02-15T04:15:45;42.78;;;21.15;;
69594;SDS011;56800;52.142;5.364;2023-02-15T04:18:38;43.45;;;22.55;;
69594;SDS011;56800;52.142;5.364;2023-02-15T04:21:26;40.20;;;21.20;;
69594;SDS011;56800;52.142;5.364;2023-02-15T04:24:13;37.60;;;20.25;;
69594;SDS011;56800;52.142;5.364;2023-02-15T04:27:00;40.13;;;21.95;;
69594;SDS011;56800;52.142;5.364;2023-02-15T04:29:28;43.42;;;21.95;;
69594;SDS011;56800;52.142;5.364;2023-02-15T04:31:55;43.03;;;20.40;;
69594;SDS011;56800;52.142;5.364;2023-02-15T04:34:23;42.43;;;20.27;;
69594;SDS011;56800;52.142;5.364;2023-02-15T04:36:49;40.28;;;20.35;;
69594;SDS011;56800;52.142;5.364;2023-02-15T04:39:17;41.22;;;21.15;;
69594;SDS011;56800;52.142;5.364;2023-02-15T04:41:44;38.38;;;20.95;;
69594;SDS011;56800;52.142;5.364;2023-02-15T04:44:11;40.88;;;20.15;;
69594;SDS011;56800;52.142;5.364;2023-02-15T04:46:38;40.83;;;20.43;;
69594;SDS011;56800;52.142;5.364;2023-02-15T04:49:05;42.00;;;20.35;;
69594;SDS011;56800;52.142;5.364;2023-02-15T04:51:31;35.25;;;20.33;;
69594;SDS011;56800;52.142;5.364;2023-02-15T04:53:58;44.60;;;20.85;;
69594;SDS011;56800;52.142;5.364;2023-02-15T04:56:25;42.05;;;20.73;;
69594;SDS011;56800;52.142;5.364;2023-02-15T04:58:51;43.73;;;21.00;;
69594;SDS011;56800;52.142;5.364;2023-02-15T05:01:18;40.55;;;20.17;;
69594;SDS011;56800;52.142;5.364;2023-02-15T05:03:45;38.55;;;20.73;;
69594;SDS011;56800;52.142;5.364;2023-02-15T05:06:12;42.45;;;20.25;;
69594;SDS011;56800;52.142;5.364;2023-02-15T05:08:38;46.60;;;20.60;;
69594;SDS011;56800;52.142;5.364;2023-02-15T05:11:05;38.70;;;19.00;;
69594;SDS011;56800;52.142;5.364;2023-02-15T05:13:32;41.05;;;20.08;;
69594;SDS011;56800;52.142;5.364;2023-02-15T05:15:58;43.30;;;21.88;;
69594;SDS011;56800;52.142;5.364;2023-02-15T05:18:26;37.33;;;19.80;;
69594;SDS011;56800;52.142;5.364;2023-02-15T05:20:52;37.78;;;20.45;;
69594;SDS011;56800;52.142;5.364;2023-02-15T05:23:19;42.87;;;19.40;;
69594;SDS011;56800;52.142;5.364;2023-02-15T05:25:47;40.47;;;19.42;;
69594;SDS011;56800;52.142;5.364;2023-02-15T05:28:32;35.45;;;18.23;;
69594;SDS011;56800;52.142;5.364;2023-02-15T05:31:04;36.72;;;18.90;;
69594;SDS011;56800;52.142;5.364;2023-02-15T05:33:34;43.30;;;20.67;;
69594;SDS011;56800;52.142;5.364;2023-02-15T05:36:01;36.17;;;19.40;;
69594;SDS011;56800;52.142;5.364;2023-02-15T05:38:29;39.08;;;19.52;;
69594;SDS011;56800;52.142;5.364;2023-02-15T05:40:56;49.35;;;20.92;;
69594;SDS011;56800;52.142;5.364;2023-02-15T05:43:23;35.38;;;18.55;;
69594;SDS011;56800;52.142;5.364;2023-02-15T05:45:50;39.92;;;19.45;;
69594;SDS011;56800;52.142;5.364;2023-02-15T05:48:19;37.77;;;17.93;;
69594;SDS011;56800;52.142;5.364;2023-02-15T05:50:56;36.03;;;18.83;;
69594;SDS011;56800;52.142;5.364;2023-02-15T05:53:26;35.58;;;18.20;;
69594;SDS011;56800;52.142;5.364;2023-02-15T05:55:54;37.42;;;19.65;;
69594;SDS011;56800;52.142;5.364;2023-02-15T05:58:26;40.58;;;19.98;;
69594;SDS011;56800;52.142;5.364;2023-02-15T06:00:53;38.00;;;18.83;;
69594;SDS011;56800;52.142;5.364;2023-02-15T06:03:20;37.05;;;17.80;;
69594;SDS011;56800;52.142;5.364;2023-02-15T06:05:48;37.58;;;18.48;;
69594;SDS011;56800;52.142;5.364;2023-02-15T06:08:15;40.92;;;18.63;;
69594;SDS011;56800;52.142;5.364;2023-02-15T06:10:41;40.20;;;19.02;;
69594;SDS011;56800;52.142;5.364;2023-02-15T06:13:08;39.67;;;18.83;;
69594;SDS011;56800;52.142;5.364;2023-02-15T06:15:35;35.78;;;18.50;;
69594;SDS011;56800;52.142;5.364;2023-02-15T06:18:02;37.90;;;17.95;;
69594;SDS011;56800;52.142;5.364;2023-02-15T06:20:28;34.97;;;19.17;;
69594;SDS011;56800;52.142;5.364;2023-02-15T06:22:55;36.50;;;17.35;;
69594;SDS011;56800;52.142;5.364;2023-02-15T06:25:21;35.67;;;18.30;;
69594;SDS011;56800;52.142;5.364;2023-02-15T06:27:48;35.00;;;18.83;;
69594;SDS011;56800;52.142;5.364;2023-02-15T06:30:15;38.35;;;18.23;;
69594;SDS011;56800;52.142;5.364;2023-02-15T06:32:42;35.90;;;18.80;;
69594;SDS011;56800;52.142;5.364;2023-02-15T06:35:09;38.72;;;19.60;;
69594;SDS011;56800;52.142;5.364;2023-02-15T06:37:35;39.63;;;18.17;;
69594;SDS011;56800;52.142;5.364;2023-02-15T06:40:02;41.97;;;19.10;;
69594;SDS011;56800;52.142;5.364;2023-02-15T06:42:31;39.25;;;19.30;;
69594;SDS011;56800;52.142;5.364;2023-02-15T06:44:58;38.80;;;19.48;;
69594;SDS011;56800;52.142;5.364;2023-02-15T06:47:26;38.85;;;19.38;;
69594;SDS011;56800;52.142;5.364;2023-02-15T06:49:53;41.43;;;19.17;;
69594;SDS011;56800;52.142;5.364;2023-02-15T06:52:19;39.25;;;18.48;;
69594;SDS011;56800;52.142;5.364;2023-02-15T06:54:46;40.42;;;19.90;;
69594;SDS011;56800;52.142;5.364;2023-02-15T06:57:13;42.17;;;19.63;;
69594;SDS011;56800;52.142;5.364;2023-02-15T06:59:39;38.55;;;20.10;;
69594;SDS011;56800;52.142;5.364;2023-02-15T07:02:07;41.03;;;20.17;;
69594;SDS011;56800;52.142;5.364;2023-02-15T07:04:35;44.63;;;20.50;;
69594;SDS011;56800;52.142;5.364;2023-02-15T07:07:02;45.20;;;20.75;;
69594;SDS011;56800;52.142;5.364;2023-02-15T07:09:29;49.00;;;20.58;;
69594;SDS011;56800;52.142;5.364;2023-02-15T07:11:55;41.87;;;19.13;;
69594;SDS011;56800;52.142;5.364;2023-02-15T07:14:41;41.08;;;18.83;;
69594;SDS011;56800;52.142;5.364;2023-02-15T07:17:07;43.75;;;20.52;;
69594;SDS011;56800;52.142;5.364;2023-02-15T07:19:54;41.95;;;20.02;;
69594;SDS011;56800;52.142;5.364;2023-02-15T07:22:21;40.67;;;19.48;;
69594;SDS011;56800;52.142;5.364;2023-02-15T07:24:48;40.00;;;18.67;;
69594;SDS011;56800;52.142;5.364;2023-02-15T07:27:15;41.10;;;20.02;;
69594;SDS011;56800;52.142;5.364;2023-02-15T07:29:42;41.45;;;20.25;;
69594;SDS011;56800;52.142;5.364;2023-02-15T07:32:08;41.95;;;20.40;;
69594;SDS011;56800;52.142;5.364;2023-02-15T07:34:35;48.05;;;22.23;;
69594;SDS011;56800;52.142;5.364;2023-02-15T07:37:02;41.33;;;19.47;;
69594;SDS011;56800;52.142;5.364;2023-02-15T07:39:28;42.88;;;19.75;;
69594;SDS011;56800;52.142;5.364;2023-02-15T07:41:55;45.13;;;20.52;;
69594;SDS011;56800;52.142;5.364;2023-02-15T07:44:21;41.72;;;21.15;;
69594;SDS011;56800;52.142;5.364;2023-02-15T07:46:48;42.50;;;19.75;;
69594;SDS011;56800;52.142;5.364;2023-02-15T07:49:15;41.37;;;19.37;;
69594;SDS011;56800;52.142;5.364;2023-02-15T07:51:41;41.83;;;20.27;;
69594;SDS011;56800;52.142;5.364;2023-02-15T07:54:08;48.53;;;21.48;;
69594;SDS011;56800;52.142;5.364;2023-02-15T07:56:35;40.30;;;20.70;;
69594;SDS011;56800;52.142;5.364;2023-02-15T07:59:02;38.75;;;19.50;;
69594;SDS011;56800;52.142;5.364;2023-02-15T08:01:32;49.10;;;20.83;;
69594;SDS011;56800;52.142;5.364;2023-02-15T08:04:01;42.92;;;21.50;;
69594;SDS011;56800;52.142;5.364;2023-02-15T08:06:30;47.65;;;20.63;;
69594;SDS011;56800;52.142;5.364;2023-02-15T08:08:58;45.35;;;21.40;;
69594;SDS011;56800;52.142;5.364;2023-02-15T08:11:28;42.72;;;20.30;;
69594;SDS011;56800;52.142;5.364;2023-02-15T08:14:12;42.93;;;20.53;;
69594;SDS011;56800;52.142;5.364;2023-02-15T08:16:41;40.90;;;21.05;;
69594;SDS011;56800;52.142;5.364;2023-02-15T08:19:18;44.00;;;21.58;;
69594;SDS011;56800;52.142;5.364;2023-02-15T08:21:49;39.17;;;19.95;;
69594;SDS011;56800;52.142;5.364;2023-02-15T08:24:18;42.33;;;21.20;;
69594;SDS011;56800;52.142;5.364;2023-02-15T08:26:46;41.60;;;21.70;;
69594;SDS011;56800;52.142;5.364;2023-02-15T08:29:14;42.03;;;20.92;;
69594;SDS011;56800;52.142;5.364;2023-02-15T08:31:42;37.65;;;19.50;;
69594;SDS011;56800;52.142;5.364;2023-02-15T08:34:10;35.92;;;20.25;;
69594;SDS011;56800;52.142;5.364;2023-02-15T08:36:39;38.70;;;19.73;;
69594;SDS011;56800;52.142;5.364;2023-02-15T08:39:07;44.07;;;21.43;;
69594;SDS011;56800;52.142;5.364;2023-02-15T08:41:34;37.58;;;21.45;;
69594;SDS011;56800;52.142;5.364;2023-02-15T08:44:03;42.60;;;22.13;;
69594;SDS011;56800;52.142;5.364;2023-02-15T08:46:33;40.40;;;21.08;;
69594;SDS011;56800;52.142;5.364;2023-02-15T08:49:03;45.28;;;21.92;;
69594;SDS011;56800;52.142;5.364;2023-02-15T08:51:30;40.07;;;22.30;;
69594;SDS011;56800;52.142;5.364;2023-02-15T08:54:00;43.53;;;23.10;;
69594;SDS011;56800;52.142;5.364;2023-02-15T08:56:33;47.17;;;23.38;;
69594;SDS011;56800;52.142;5.364;2023-02-15T08:59:02;40.00;;;22.42;;
69594;SDS011;56800;52.142;5.364;2023-02-15T09:01:30;41.60;;;22.33;;
69594;SDS011;56800;52.142;5.364;2023-02-15T09:03:59;43.67;;;22.63;;
69594;SDS011;56800;52.142;5.364;2023-02-15T09:06:31;40.17;;;21.67;;
69594;SDS011;56800;52.142;5.364;2023-02-15T09:08:58;42.97;;;21.70;;
69594;SDS011;56800;52.142;5.364;2023-02-15T09:11:29;41.55;;;21.88;;
69594;SDS011;56800;52.142;5.364;2023-02-15T09:13:58;37.40;;;21.27;;
69594;SDS011;56800;52.142;5.364;2023-02-15T09:16:27;41.07;;;22.33;;
69594;SDS011;56800;52.142;5.364;2023-02-15T09:18:55;39.03;;;21.65;;
69594;SDS011;56800;52.142;5.364;2023-02-15T09:21:27;37.47;;;21.20;;
69594;SDS011;56800;52.142;5.364;2023-02-15T09:23:58;36.47;;;21.45;;
69594;SDS011;56800;52.142;5.364;2023-02-15T09:26:28;41.17;;;22.33;;
69594;SDS011;56800;52.142;5.364;2023-02-15T09:28:56;37.30;;;20.57;;
69594;SDS011;56800;52.142;5.364;2023-02-15T09:31:28;35.60;;;21.48;;
69594;SDS011;56800;52.142;5.364;2023-02-15T09:33:56;37.60;;;21.33;;
69594;SDS011;56800;52.142;5.364;2023-02-15T09:38:57;39.53;;;22.52;;
69594;SDS011;56800;52.142;5.364;2023-02-15T10:11:36;38.20;;;23.02;;
69594;SDS011;56800;52.142;5.364;2023-02-15T10:14:19;42.22;;;24.27;;
69594;SDS011;56800;52.142;5.364;2023-02-15T10:28:05;36.50;;;23.23;;
69594;SDS011;56800;52.142;5.364;2023-02-15T10:33:17;36.70;;;23.00;;
69594;SDS011;56800;52.142;5.364;2023-02-15T10:38:37;39.05;;;23.88;;
69594;SDS011;56800;52.142;5.364;2023-02-15T10:52:49;37.67;;;22.20;;
69594;SDS011;56800;52.142;5.364;2023-02-15T10:58:14;41.92;;;23.00;;
69594;SDS011;56800;52.142;5.364;2023-02-15T11:03:36;38.50;;;21.63;;
69594;SDS011;56800;52.142;5.364;2023-02-15T11:06:08;37.45;;;22.40;;
69594;SDS011;56800;52.142;5.364;2023-02-15T11:08:47;38.97;;;23.40;;
69594;SDS011;56800;52.142;5.364;2023-02-15T11:11:34;38.28;;;22.83;;
69594;SDS011;56800;52.142;5.364;2023-02-15T11:14:15;41.35;;;23.10;;
69594;SDS011;56800;52.142;5.364;2023-02-15T11:16:50;40.17;;;21.83;;
69594;SDS011;56800;52.142;5.364;2023-02-15T11:19:26;40.63;;;22.67;;
69594;SDS011;56800;52.142;5.364;2023-02-15T11:22:17;42.42;;;23.30;;
69594;SDS011;56800;52.142;5.364;2023-02-15T11:24:44;41.28;;;23.67;;
69594;SDS011;56800;52.142;5.364;2023-02-15T11:29:41;42.60;;;22.43;;
69594;SDS011;56800;52.142;5.364;2023-02-15T11:35:04;41.60;;;23.45;;
69594;SDS011;56800;52.142;5.364;2023-02-15T11:40:23;40.70;;;23.42;;
69594;SDS011;56800;52.142;5.364;2023-02-15T11:43:00;42.20;;;23.57;;
69594;SDS011;56800;52.142;5.364;2023-02-15T11:45:32;48.08;;;25.48;;
69594;SDS011;56800;52.142;5.364;2023-02-15T11:48:11;41.20;;;23.25;;
69594;SDS011;56800;52.142;5.364;2023-02-15T11:50:40;43.30;;;23.98;;
69594;SDS011;56800;52.142;5.364;2023-02-15T11:53:18;41.30;;;24.77;;
69594;SDS011;56800;52.142;5.364;2023-02-15T11:55:54;41.43;;;23.93;;
69594;SDS011;56800;52.142;5.364;2023-02-15T11:58:40;42.25;;;24.65;;
69594;SDS011;56800;52.142;5.364;2023-02-15T12:04:03;40.47;;;24.38;;
69594;SDS011;56800;52.142;5.364;2023-02-15T12:06:35;43.38;;;24.45;;
69594;SDS011;56800;52.142;5.364;2023-02-15T12:09:17;45.43;;;24.67;;
69594;SDS011;56800;52.142;5.364;2023-02-15T12:12:19;45.45;;;23.58;;
69594;SDS011;56800;52.142;5.364;2023-02-15T12:14:54;41.17;;;23.85;;
69594;SDS011;56800;52.142;5.364;2023-02-15T12:17:26;41.90;;;22.95;;
69594;SDS011;56800;52.142;5.364;2023-02-15T12:19:56;44.47;;;24.00;;
69594;SDS011;56800;52.142;5.364;2023-02-15T12:22:29;40.87;;;23.10;;
69594;SDS011;56800;52.142;5.364;2023-02-15T12:24:59;41.35;;;23.23;;
69594;SDS011;56800;52.142;5.364;2023-02-15T12:27:28;50.05;;;25.10;;
69594;SDS011;56800;52.142;5.364;2023-02-15T12:30:04;40.03;;;23.40;;
69594;SDS011;56800;52.142;5.364;2023-02-15T12:32:51;40.58;;;23.95;;
69594;SDS011;56800;52.142;5.364;2023-02-15T12:38:00;40.78;;;24.08;;
69594;SDS011;56800;52.142;5.364;2023-02-15T12:40:59;41.25;;;24.02;;
69594;SDS011;56800;52.142;5.364;2023-02-15T12:43:35;41.75;;;24.70;;
69594;SDS011;56800;52.142;5.364;2023-02-15T12:51:45;46.58;;;24.60;;
69594;SDS011;56800;52.142;5.364;2023-02-15T12:54:31;40.30;;;23.83;;
69594;SDS011;56800;52.142;5.364;2023-02-15T12:57:12;44.45;;;25.40;;
69594;SDS011;56800;52.142;5.364;2023-02-15T12:59:49;43.60;;;26.08;;
69594;SDS011;56800;52.142;5.364;2023-02-15T13:02:23;40.30;;;24.50;;
69594;SDS011;56800;52.142;5.364;2023-02-15T13:04:57;46.90;;;23.70;;
69594;SDS011;56800;52.142;5.364;2023-02-15T13:07:35;43.67;;;24.50;;
69594;SDS011;56800;52.142;5.364;2023-02-15T13:10:03;39.22;;;22.77;;
69594;SDS011;56800;52.142;5.364;2023-02-15T13:12:30;45.92;;;24.63;;
69594;SDS011;56800;52.142;5.364;2023-02-15T13:14:58;44.63;;;23.23;;
69594;SDS011;56800;52.142;5.364;2023-02-15T13:17:31;43.17;;;25.05;;
69594;SDS011;56800;52.142;5.364;2023-02-15T13:20:02;45.35;;;24.73;;
69594;SDS011;56800;52.142;5.364;2023-02-15T13:22:43;41.92;;;24.30;;
69594;SDS011;56800;52.142;5.364;2023-02-15T13:25:22;43.20;;;24.13;;
69594;SDS011;56800;52.142;5.364;2023-02-15T13:27:52;46.83;;;23.43;;
69594;SDS011;56800;52.142;5.364;2023-02-15T13:32:54;44.60;;;24.15;;
69594;SDS011;56800;52.142;5.364;2023-02-15T13:35:27;46.17;;;25.88;;
69594;SDS011;56800;52.142;5.364;2023-02-15T13:38:06;43.78;;;23.25;;
69594;SDS011;56800;52.142;5.364;2023-02-15T13:40:55;42.50;;;23.93;;
69594;SDS011;56800;52.142;5.364;2023-02-15T13:46:13;42.83;;;24.08;;
69594;SDS011;56800;52.142;5.364;2023-02-15T13:51:57;44.45;;;24.95;;
69594;SDS011;56800;52.142;5.364;2023-02-15T14:00:31;45.85;;;24.38;;
69594;SDS011;56800;52.142;5.364;2023-02-15T14:03:28;46.45;;;25.23;;
69594;SDS011;56800;52.142;5.364;2023-02-15T14:06:12;46.33;;;27.02;;
69594;SDS011;56800;52.142;5.364;2023-02-15T14:08:58;44.23;;;25.60;;
69594;SDS011;56800;52.142;5.364;2023-02-15T14:17:47;44.65;;;24.70;;
69594;SDS011;56800;52.142;5.364;2023-02-15T14:20:29;45.40;;;24.35;;
69594;SDS011;56800;52.142;5.364;2023-02-15T14:26:11;47.20;;;26.02;;
69594;SDS011;56800;52.142;5.364;2023-02-15T14:29:09;45.67;;;26.40;;
69594;SDS011;56800;52.142;5.364;2023-02-15T14:31:47;49.22;;;26.63;;
69594;SDS011;56800;52.142;5.364;2023-02-15T14:34:22;46.95;;;26.42;;
69594;SDS011;56800;52.142;5.364;2023-02-15T14:37:01;42.03;;;25.33;;
69594;SDS011;56800;52.142;5.364;2023-02-15T14:39:42;48.00;;;26.33;;
69594;SDS011;56800;52.142;5.364;2023-02-15T14:42:36;48.65;;;26.60;;
69594;SDS011;56800;52.142;5.364;2023-02-15T14:45:31;46.65;;;26.27;;
69594;SDS011;56800;52.142;5.364;2023-02-15T14:48:15;49.28;;;27.02;;
69594;SDS011;56800;52.142;5.364;2023-02-15T14:50:47;47.40;;;26.43;;
69594;SDS011;56800;52.142;5.364;2023-02-15T14:53:25;45.25;;;25.85;;
69594;SDS011;56800;52.142;5.364;2023-02-15T14:56:16;43.97;;;24.52;;
69594;SDS011;56800;52.142;5.364;2023-02-15T15:01:33;46.83;;;24.73;;
69594;SDS011;56800;52.142;5.364;2023-02-15T15:04:05;47.80;;;26.30;;
69594;SDS011;56800;52.142;5.364;2023-02-15T15:10:00;43.20;;;25.65;;
69594;SDS011;56800;52.142;5.364;2023-02-15T15:12:42;49.33;;;27.10;;
69594;SDS011;56800;52.142;5.364;2023-02-15T15:20:50;47.47;;;26.02;;
69594;SDS011;56800;52.142;5.364;2023-02-15T15:25:49;47.47;;;26.58;;
69594;SDS011;56800;52.142;5.364;2023-02-15T15:31:00;48.90;;;27.13;;
69594;SDS011;56800;52.142;5.364;2023-02-15T15:48:59;50.47;;;27.08;;
69594;SDS011;56800;52.142;5.364;2023-02-15T15:51:32;52.50;;;27.67;;
69594;SDS011;56800;52.142;5.364;2023-02-15T15:54:00;52.08;;;27.75;;
69594;SDS011;56800;52.142;5.364;2023-02-15T15:56:31;48.45;;;27.05;;
69594;SDS011;56800;52.142;5.364;2023-02-15T15:59:02;45.47;;;27.37;;
69594;SDS011;56800;52.142;5.364;2023-02-15T16:01:37;43.63;;;25.63;;
69594;SDS011;56800;52.142;5.364;2023-02-15T16:04:12;47.47;;;27.02;;
69594;SDS011;56800;52.142;5.364;2023-02-15T16:06:48;43.90;;;25.88;;
69594;SDS011;56800;52.142;5.364;2023-02-15T16:09:16;46.45;;;26.77;;
69594;SDS011;56800;52.142;5.364;2023-02-15T16:11:44;45.50;;;26.23;;
69594;SDS011;56800;52.142;5.364;2023-02-15T16:14:20;51.30;;;28.27;;
69594;SDS011;56800;52.142;5.364;2023-02-15T16:17:01;47.03;;;27.23;;
69594;SDS011;56800;52.142;5.364;2023-02-15T16:19:35;50.70;;;26.05;;
69594;SDS011;56800;52.142;5.364;2023-02-15T16:22:07;50.13;;;27.35;;
69594;SDS011;56800;52.142;5.364;2023-02-15T16:27:21;54.42;;;27.60;;
69594;SDS011;56800;52.142;5.364;2023-02-15T16:33:05;47.75;;;26.40;;
69594;SDS011;56800;52.142;5.364;2023-02-15T16:35:34;47.75;;;26.55;;
69594;SDS011;56800;52.142;5.364;2023-02-15T16:38:03;44.50;;;27.93;;
69594;SDS011;56800;52.142;5.364;2023-02-15T16:43:23;46.70;;;27.45;;
69594;SDS011;56800;52.142;5.364;2023-02-15T16:45:53;50.30;;;27.48;;
69594;SDS011;56800;52.142;5.364;2023-02-15T16:48:29;55.30;;;28.67;;
69594;SDS011;56800;52.142;5.364;2023-02-15T16:50:56;51.57;;;28.27;;
69594;SDS011;56800;52.142;5.364;2023-02-15T16:53:27;51.58;;;27.00;;
69594;SDS011;56800;52.142;5.364;2023-02-15T16:55:55;50.38;;;26.55;;
69594;SDS011;56800;52.142;5.364;2023-02-15T16:58:48;47.45;;;27.38;;
69594;SDS011;56800;52.142;5.364;2023-02-15T17:01:16;49.28;;;27.40;;
69594;SDS011;56800;52.142;5.364;2023-02-15T17:03:48;48.10;;;27.20;;
69594;SDS011;56800;52.142;5.364;2023-02-15T17:06:25;52.83;;;28.63;;
69594;SDS011;56800;52.142;5.364;2023-02-15T17:09:05;49.72;;;28.80;;
69594;SDS011;56800;52.142;5.364;2023-02-15T17:11:40;50.15;;;27.98;;
69594;SDS011;56800;52.142;5.364;2023-02-15T17:16:36;47.77;;;27.30;;
69594;SDS011;56800;52.142;5.364;2023-02-15T17:19:29;46.38;;;27.10;;
69594;SDS011;56800;52.142;5.364;2023-02-15T17:21:59;46.15;;;27.25;;
69594;SDS011;56800;52.142;5.364;2023-02-15T17:27:02;51.38;;;28.55;;
69594;SDS011;56800;52.142;5.364;2023-02-15T17:29:41;50.47;;;28.47;;
69594;SDS011;56800;52.142;5.364;2023-02-15T17:32:14;52.53;;;28.23;;
69594;SDS011;56800;52.142;5.364;2023-02-15T17:42:44;52.50;;;28.60;;
69594;SDS011;56800;52.142;5.364;2023-02-15T17:45:11;47.33;;;27.67;;
69594;SDS011;56800;52.142;5.364;2023-02-15T17:47:40;50.80;;;28.48;;
69594;SDS011;56800;52.142;5.364;2023-02-15T17:50:10;51.85;;;28.25;;
69594;SDS011;56800;52.142;5.364;2023-02-15T17:52:45;47.20;;;27.15;;
69594;SDS011;56800;52.142;5.364;2023-02-15T17:55:14;52.20;;;27.63;;
69594;SDS011;56800;52.142;5.364;2023-02-15T17:58:01;52.13;;;27.67;;
69594;SDS011;56800;52.142;5.364;2023-02-15T18:00:30;53.75;;;28.42;;
69594;SDS011;56800;52.142;5.364;2023-02-15T18:03:18;52.30;;;27.33;;
69594;SDS011;56800;52.142;5.364;2023-02-15T18:06:04;53.70;;;28.35;;
69594;SDS011;56800;52.142;5.364;2023-02-15T18:08:49;52.97;;;27.17;;